createdAt,value
2023-05-08T00:00:20.170Z,22.37
2023-05-08T00:02:50.190Z,21.57
2023-05-08T00:05:19.894Z,21.90
2023-05-08T00:07:51.061Z,22.30
2023-05-08T00:10:20.799Z,21.90
2023-05-08T00:12:50.644Z,20.27
2023-05-08T00:15:20.307Z,21.80
2023-05-08T00:17:50.401Z,21.67
2023-05-08T00:20:20.206Z,22.37
2023-05-08T00:22:50.026Z,21.13
2023-05-08T00:25:19.848Z,22.60
2023-05-08T00:27:50.735Z,26.30
2023-05-08T00:30:21.285Z,20.52
2023-05-08T00:32:51.650Z,21.57
2023-05-08T00:35:21.837Z,19.65
2023-05-08T00:37:51.704Z,20.77
2023-05-08T00:40:21.733Z,19.95
2023-05-08T00:42:51.614Z,21.33
2023-05-08T00:45:21.368Z,18.77
2023-05-08T00:47:52.000Z,19.13
2023-05-08T00:50:22.169Z,18.67
2023-05-08T00:52:52.326Z,18.27
2023-05-08T00:55:22.134Z,18.62
2023-05-08T00:57:53.475Z,18.93
2023-05-08T01:00:23.610Z,18.17
2023-05-08T01:02:53.785Z,18.67
2023-05-08T01:05:23.875Z,17.07
2023-05-08T01:07:53.701Z,17.93
2023-05-08T01:10:24.504Z,21.02
2023-05-08T01:13:00.625Z,18.80
2023-05-08T01:15:33.195Z,17.90
2023-05-08T01:18:23.936Z,18.07
2023-05-08T01:20:59.492Z,18.00
2023-05-08T01:24:07.285Z,21.52
2023-05-08T01:26:59.249Z,22.50
2023-05-08T01:30:04.970Z,19.47
2023-05-08T01:32:41.317Z,19.63
2023-05-08T01:35:14.219Z,18.57
2023-05-08T01:37:50.132Z,20.33
2023-05-08T01:40:23.166Z,22.00
2023-05-08T01:42:59.012Z,20.17
2023-05-08T01:48:06.156Z,21.75
2023-05-08T01:50:39.481Z,19.73
2023-05-08T01:53:12.651Z,17.62
2023-05-08T01:55:44.587Z,17.57
2023-05-08T01:58:14.541Z,20.70
2023-05-08T02:00:45.512Z,18.70
2023-05-08T02:03:17.482Z,19.45
2023-05-08T02:05:49.623Z,20.63
2023-05-08T02:08:22.134Z,19.17
2023-05-08T02:10:54.593Z,19.27
2023-05-08T02:13:27.291Z,21.43
2023-05-08T02:15:59.049Z,21.20
2023-05-08T02:18:30.968Z,19.27
2023-05-08T02:21:03.855Z,22.67
2023-05-08T02:23:35.958Z,20.63
2023-05-08T02:26:07.891Z,19.90
2023-05-08T02:28:38.649Z,20.30
2023-05-08T02:31:10.307Z,20.20
2023-05-08T02:33:42.526Z,19.47
2023-05-08T02:36:14.573Z,21.48
2023-05-08T02:38:47.074Z,22.25
2023-05-08T02:41:18.838Z,21.83
2023-05-08T02:43:49.402Z,21.97
2023-05-08T02:46:27.717Z,26.27
2023-05-08T02:49:06.535Z,21.67
2023-05-08T02:51:55.802Z,20.00
2023-05-08T02:54:42.879Z,20.20
2023-05-08T02:57:31.916Z,23.33
2023-05-08T03:00:07.691Z,24.50
2023-05-08T03:02:41.076Z,23.73
2023-05-08T03:05:22.794Z,30.33
2023-05-08T03:07:56.215Z,28.50
2023-05-08T03:10:29.379Z,31.35
2023-05-08T03:13:00.853Z,28.17
2023-05-08T03:15:36.740Z,25.20
2023-05-08T03:18:14.037Z,31.20
2023-05-08T03:20:46.907Z,30.63
2023-05-08T03:23:20.183Z,26.87
2023-05-08T03:25:50.154Z,29.50
2023-05-08T03:28:21.634Z,30.77
2023-05-08T03:30:52.881Z,26.07
2023-05-08T03:33:24.256Z,30.13
2023-05-08T03:35:55.898Z,30.03
2023-05-08T03:38:26.096Z,27.25
2023-05-08T03:40:56.246Z,26.17
2023-05-08T03:43:27.933Z,29.18
2023-05-08T03:45:58.786Z,32.17
2023-05-08T03:48:29.627Z,28.50
2023-05-08T03:51:02.296Z,24.87
2023-05-08T03:53:33.652Z,26.50
2023-05-08T03:56:06.486Z,24.72
2023-05-08T03:58:51.697Z,23.63
2023-05-08T04:01:36.309Z,26.07
2023-05-08T04:04:19.268Z,29.23
2023-05-08T04:07:13.182Z,27.00
2023-05-08T04:10:02.786Z,24.37
2023-05-08T04:12:47.644Z,31.63
2023-05-08T04:15:21.020Z,28.12
2023-05-08T04:17:56.618Z,31.90
2023-05-08T04:20:28.711Z,31.90
2023-05-08T04:22:59.826Z,31.07
2023-05-08T04:25:31.541Z,30.23
2023-05-08T04:28:02.490Z,32.53
2023-05-08T04:30:32.787Z,29.63
2023-05-08T04:33:06.281Z,35.13
2023-05-08T04:35:36.716Z,33.50
2023-05-08T04:38:07.967Z,29.73
2023-05-08T04:40:37.498Z,30.80
2023-05-08T04:43:07.759Z,38.00
2023-05-08T04:45:37.529Z,33.03
2023-05-08T04:48:09.937Z,32.84
2023-05-08T04:50:39.846Z,36.90
2023-05-08T04:53:09.660Z,34.73
2023-05-08T04:55:39.840Z,33.50
2023-05-08T04:58:12.188Z,38.24
2023-05-08T05:00:41.988Z,36.10
2023-05-08T05:03:11.927Z,35.37
2023-05-08T05:05:42.517Z,38.80
2023-05-08T05:08:12.153Z,39.00
2023-05-08T05:10:43.057Z,37.45
2023-05-08T05:13:13.087Z,38.57
2023-05-08T05:15:45.948Z,42.90
2023-05-08T05:18:15.819Z,35.23
2023-05-08T05:20:46.148Z,41.53
2023-05-08T05:23:16.008Z,42.13
2023-05-08T05:25:46.587Z,42.27
2023-05-08T05:28:16.214Z,42.03
2023-05-08T05:30:48.699Z,41.70
2023-05-08T05:33:19.175Z,42.03
2023-05-08T05:38:11.100Z,37.03
2023-05-08T05:40:41.167Z,40.43
2023-05-08T05:43:10.985Z,42.93
2023-05-08T05:45:41.155Z,42.80
2023-05-08T05:48:12.143Z,39.98
2023-05-08T05:50:42.702Z,38.70
2023-05-08T05:53:13.093Z,37.17
2023-05-08T05:55:42.982Z,39.20
2023-05-08T05:58:12.962Z,38.30
2023-05-08T06:00:42.985Z,35.43
2023-05-08T06:03:12.856Z,39.30
2023-05-08T06:05:42.874Z,35.00
2023-05-08T06:08:13.407Z,40.02
2023-05-08T06:10:43.257Z,36.80
2023-05-08T06:13:13.552Z,36.93
2023-05-08T06:15:43.478Z,35.17
2023-05-08T06:18:13.377Z,34.77
2023-05-08T06:20:43.319Z,35.60
2023-05-08T06:23:13.318Z,33.67
2023-05-08T06:25:43.114Z,36.30
2023-05-08T06:28:12.908Z,37.50
2023-05-08T06:30:42.785Z,38.60
2023-05-08T06:33:12.660Z,37.53
2023-05-08T06:35:42.535Z,41.27
2023-05-08T06:38:12.229Z,39.30
2023-05-08T06:40:46.802Z,41.17
2023-05-08T06:43:16.382Z,41.75
2023-05-08T06:45:46.491Z,39.27
2023-05-08T06:48:16.232Z,37.37
2023-05-08T06:50:46.793Z,36.67
2023-05-08T06:53:16.637Z,38.87
2023-05-08T06:55:46.490Z,45.67
2023-05-08T06:58:16.085Z,41.50
2023-05-08T07:00:46.055Z,39.53
2023-05-08T07:03:16.209Z,46.13
2023-05-08T07:05:45.972Z,42.80
2023-05-08T07:08:15.506Z,39.27
2023-05-08T07:10:45.578Z,45.27
2023-05-08T07:13:15.209Z,45.30
2023-05-08T07:15:45.483Z,46.35
2023-05-08T07:18:15.069Z,43.33
2023-05-08T07:20:44.955Z,44.10
2023-05-08T07:23:14.763Z,40.77
2023-05-08T07:25:44.643Z,43.40
2023-05-08T07:28:15.014Z,39.67
2023-05-08T07:30:44.895Z,39.03
2023-05-08T07:33:14.716Z,43.10
2023-05-08T07:35:44.778Z,38.40
2023-05-08T07:38:14.649Z,38.70
2023-05-08T07:40:44.479Z,37.63
2023-05-08T07:43:15.021Z,40.43
2023-05-08T07:45:44.849Z,39.13
2023-05-08T07:48:14.721Z,38.80
2023-05-08T07:50:44.739Z,37.60
2023-05-08T07:53:14.268Z,37.45
2023-05-08T07:55:44.386Z,40.77
2023-05-08T07:58:14.424Z,41.18
2023-05-08T08:00:44.760Z,40.97
2023-05-08T08:03:14.488Z,41.80
2023-05-08T08:05:44.417Z,44.13
2023-05-08T08:08:14.226Z,49.20
2023-05-08T08:10:44.102Z,44.57
2023-05-08T08:13:13.967Z,42.00
2023-05-08T08:15:43.553Z,44.60
2023-05-08T08:18:13.254Z,44.73
2023-05-08T08:20:42.808Z,47.75
2023-05-08T08:23:12.682Z,44.80
2023-05-08T08:25:42.539Z,48.53
2023-05-08T08:28:12.006Z,46.50
2023-05-08T08:30:41.853Z,48.87
2023-05-08T08:33:12.087Z,42.40
2023-05-08T08:35:42.137Z,40.80
2023-05-08T08:38:11.995Z,42.13
2023-05-08T08:40:43.041Z,43.13
2023-05-08T08:43:13.076Z,41.00
2023-05-08T08:45:42.910Z,44.73
2023-05-08T08:48:13.882Z,37.75
2023-05-08T08:50:46.123Z,41.97
2023-05-08T08:53:30.940Z,40.83
2023-05-08T08:56:02.904Z,38.97
2023-05-08T08:58:42.248Z,38.70
2023-05-08T09:01:15.178Z,38.87
2023-05-08T09:03:47.472Z,36.23
2023-05-08T09:06:17.208Z,32.98
2023-05-08T09:08:47.156Z,34.07
2023-05-08T09:11:16.949Z,36.60
2023-05-08T09:13:46.774Z,35.60
2023-05-08T09:16:16.401Z,34.13
2023-05-08T09:18:45.251Z,38.63
2023-05-08T09:21:15.066Z,37.20
2023-05-08T09:23:59.424Z,38.50
2023-05-08T09:26:32.361Z,33.10
2023-05-08T09:29:14.917Z,34.97
2023-05-08T09:31:47.109Z,32.90
2023-05-08T09:34:28.730Z,35.40
2023-05-08T09:37:07.549Z,34.00
2023-05-08T09:39:39.063Z,36.60
2023-05-08T09:42:11.465Z,39.60
2023-05-08T09:44:52.187Z,43.38
2023-05-08T09:47:24.419Z,39.90
2023-05-08T09:50:02.464Z,41.93
2023-05-08T09:52:33.987Z,42.50
2023-05-08T09:55:09.317Z,40.17
2023-05-08T09:57:41.365Z,42.97
2023-05-08T10:00:14.779Z,41.68
2023-05-08T10:02:56.534Z,41.53
2023-05-08T10:05:29.712Z,45.63
2023-05-08T10:08:02.125Z,38.90
2023-05-08T10:10:31.786Z,38.05
2023-05-08T10:13:01.356Z,37.35
2023-05-08T10:15:31.775Z,38.70
2023-05-08T10:18:06.906Z,37.80
2023-05-08T10:20:44.298Z,38.10
2023-05-08T10:23:17.753Z,36.03
2023-05-08T10:25:49.559Z,37.97
2023-05-08T10:28:33.937Z,36.47
2023-05-08T10:31:07.653Z,34.23
2023-05-08T10:33:40.237Z,36.05
2023-05-08T10:36:13.150Z,38.95
2023-05-08T10:38:44.180Z,35.03
2023-05-08T10:41:14.446Z,36.15
2023-05-08T10:43:44.724Z,33.30
2023-05-08T10:46:20.334Z,32.30
2023-05-08T10:48:58.789Z,33.07
2023-05-08T10:51:42.692Z,33.10
2023-05-08T10:54:27.995Z,30.57
2023-05-08T10:57:10.538Z,31.27
2023-05-08T10:59:41.889Z,27.17
2023-05-08T11:02:11.842Z,29.33
2023-05-08T11:04:41.811Z,28.77
2023-05-08T11:07:11.705Z,31.40
2023-05-08T11:09:47.263Z,27.40
2023-05-08T11:12:22.722Z,27.70
2023-05-08T11:15:09.280Z,25.63
2023-05-08T11:17:42.004Z,28.20
2023-05-08T11:20:13.233Z,28.80
2023-05-08T11:22:48.502Z,26.95
2023-05-08T11:25:19.240Z,25.13
2023-05-08T11:27:55.579Z,25.37
2023-05-08T11:30:37.082Z,25.92
2023-05-08T11:33:09.933Z,27.67
2023-05-08T11:35:53.996Z,29.20
2023-05-08T11:38:36.050Z,28.98
2023-05-08T11:41:10.358Z,33.30
2023-05-08T11:43:51.678Z,31.07
2023-05-08T11:46:22.487Z,27.02
2023-05-08T11:48:55.150Z,35.40
2023-05-08T11:51:24.952Z,30.70
2023-05-08T11:53:54.772Z,31.53
2023-05-08T11:56:25.068Z,33.88
2023-05-08T11:59:10.210Z,29.63
2023-05-08T12:01:39.988Z,28.05
2023-05-08T12:04:13.254Z,29.80
2023-05-08T12:06:44.500Z,33.33
2023-05-08T12:09:17.315Z,32.63
2023-05-08T12:11:47.173Z,28.07
2023-05-08T12:14:18.795Z,29.67
2023-05-08T12:16:48.604Z,31.40
2023-05-08T12:19:18.397Z,28.00
2023-05-08T12:21:51.305Z,31.65
2023-05-08T12:24:23.347Z,31.77
2023-05-08T12:26:56.795Z,30.60
2023-05-08T12:29:27.278Z,32.47
2023-05-08T12:31:57.244Z,31.70
2023-05-08T12:34:27.214Z,29.77
2023-05-08T12:37:04.351Z,34.33
2023-05-08T12:39:37.857Z,33.00
2023-05-08T12:42:08.488Z,39.27
2023-05-08T12:44:38.289Z,40.50
2023-05-08T12:47:08.114Z,33.43
2023-05-08T12:49:38.984Z,34.07
2023-05-08T12:52:15.852Z,35.30
2023-05-08T12:54:49.928Z,33.48
2023-05-08T12:57:22.239Z,37.80
2023-05-08T12:59:52.128Z,37.20
2023-05-08T13:02:23.948Z,36.03
2023-05-08T13:04:57.173Z,39.17
2023-05-08T13:07:30.107Z,38.43
2023-05-08T13:10:03.169Z,37.77
2023-05-08T13:12:33.464Z,39.60
2023-05-08T13:15:04.861Z,38.73
2023-05-08T13:17:34.775Z,39.17
2023-05-08T13:20:06.786Z,38.00
2023-05-08T13:22:36.669Z,35.63
2023-05-08T13:25:08.091Z,35.70
2023-05-08T13:27:37.892Z,36.37
2023-05-08T13:30:10.844Z,35.23
2023-05-08T13:32:40.848Z,35.13
2023-05-08T13:35:10.892Z,32.40
2023-05-08T13:37:40.700Z,37.80
2023-05-08T13:40:11.840Z,31.60
2023-05-08T13:42:41.910Z,33.47
2023-05-08T13:45:14.232Z,35.47
2023-05-08T13:47:44.584Z,33.30
2023-05-08T13:50:16.739Z,34.66
2023-05-08T13:52:46.538Z,34.43
2023-05-08T13:55:17.404Z,34.80
2023-05-08T13:57:47.656Z,34.37
2023-05-08T14:00:18.066Z,35.30
2023-05-08T14:02:48.336Z,35.23
2023-05-08T14:05:18.610Z,30.03
2023-05-08T14:07:48.398Z,30.53
2023-05-08T14:10:18.231Z,32.47
2023-05-08T14:12:48.510Z,32.07
2023-05-08T14:15:18.539Z,31.05
2023-05-08T14:17:48.721Z,33.75
2023-05-08T14:20:18.432Z,31.67
2023-05-08T14:22:48.211Z,33.10
2023-05-08T14:25:17.987Z,28.50
2023-05-08T14:27:47.815Z,28.70
2023-05-08T14:30:17.623Z,32.10
2023-05-08T14:32:47.471Z,31.93
2023-05-08T14:35:17.455Z,35.27
2023-05-08T14:37:48.903Z,32.60
2023-05-08T14:40:18.763Z,31.85
2023-05-08T14:42:48.576Z,32.37
2023-05-08T14:45:18.317Z,29.32
2023-05-08T14:47:48.262Z,28.90
2023-05-08T14:50:17.928Z,29.33
2023-05-08T14:52:47.744Z,29.93
2023-05-08T14:55:19.391Z,34.83
2023-05-08T14:57:49.353Z,38.25
2023-05-08T15:00:19.377Z,37.60
2023-05-08T15:02:49.501Z,37.37
2023-05-08T15:05:20.519Z,37.20
2023-05-08T15:07:50.893Z,40.83
2023-05-08T15:10:20.818Z,35.13
2023-05-08T15:12:51.194Z,34.77
2023-05-08T15:15:21.149Z,34.53
2023-05-08T15:17:51.002Z,37.87
2023-05-08T15:20:21.339Z,38.88
2023-05-08T15:22:51.135Z,39.70
2023-05-08T15:25:21.361Z,34.80
2023-05-08T15:27:52.845Z,37.60
2023-05-08T15:30:22.996Z,36.70
2023-05-08T15:32:52.957Z,37.43
2023-05-08T15:35:22.794Z,34.23
2023-05-08T15:37:52.305Z,41.50
2023-05-08T15:40:22.189Z,35.28
2023-05-08T15:42:52.016Z,37.90
2023-05-08T15:45:21.912Z,40.15
2023-05-08T15:47:51.739Z,42.10
2023-05-08T15:50:22.254Z,34.78
2023-05-08T15:52:52.068Z,38.67
2023-05-08T15:55:23.411Z,46.67
2023-05-08T15:57:53.657Z,40.30
2023-05-08T16:00:27.252Z,42.60
2023-05-08T16:02:54.789Z,47.37
2023-05-08T16:05:24.616Z,44.67
2023-05-08T16:07:55.483Z,47.03
2023-05-08T16:10:25.662Z,47.50
2023-05-08T16:12:55.233Z,48.95
2023-05-08T16:15:25.127Z,46.08
2023-05-08T16:17:54.969Z,43.10
2023-05-08T16:20:24.668Z,42.83
2023-05-08T16:22:55.805Z,54.57
2023-05-08T16:25:26.356Z,44.25
2023-05-08T16:27:56.465Z,46.05
2023-05-08T16:30:26.351Z,43.10
2023-05-08T16:32:56.268Z,47.87
2023-05-08T16:35:25.991Z,47.70
2023-05-08T16:37:55.993Z,48.77
2023-05-08T16:40:25.512Z,52.33
2023-05-08T16:42:55.015Z,47.27
2023-05-08T16:45:25.134Z,49.45
2023-05-08T16:47:54.958Z,52.60
2023-05-08T16:50:24.654Z,58.80
2023-05-08T16:52:55.431Z,46.67
2023-05-08T16:55:25.311Z,53.80
2023-05-08T16:57:55.197Z,50.47
2023-05-08T17:00:25.409Z,57.65
2023-05-08T17:02:55.663Z,53.33
2023-05-08T17:05:25.407Z,64.83
2023-05-08T17:07:55.314Z,53.93
2023-05-08T17:10:24.895Z,49.10
2023-05-08T17:12:54.910Z,50.40
2023-05-08T17:15:24.602Z,52.20
2023-05-08T17:17:55.872Z,50.50
2023-05-08T17:20:26.120Z,55.67
2023-05-08T17:22:55.994Z,58.43
2023-05-08T17:25:25.861Z,56.55
2023-05-08T17:27:55.971Z,59.10
2023-05-08T17:30:26.219Z,64.95
2023-05-08T17:32:56.117Z,65.80
2023-05-08T17:35:25.995Z,76.60
2023-05-08T17:37:55.810Z,68.43
2023-05-08T17:40:26.189Z,71.77
2023-05-08T17:42:56.056Z,68.57
2023-05-08T17:45:25.624Z,34.78
2023-05-08T17:47:55.473Z,15.77
2023-05-08T17:50:25.339Z,17.20
2023-05-08T17:52:55.202Z,16.57
2023-05-08T17:55:24.823Z,19.77
2023-05-08T17:57:55.684Z,22.40
2023-05-08T18:00:25.589Z,29.50
2023-05-08T18:02:55.853Z,25.50
2023-05-08T18:05:25.775Z,24.23
2023-05-08T18:07:55.858Z,30.23
2023-05-08T18:10:25.848Z,20.97
2023-05-08T18:12:55.906Z,19.83
2023-05-08T18:15:25.690Z,17.07
2023-05-08T18:17:55.514Z,18.73
2023-05-08T18:20:25.536Z,13.93
2023-05-08T18:22:55.337Z,12.43
2023-05-08T18:25:24.912Z,17.00
2023-05-08T18:27:54.716Z,9.13
2023-05-08T18:30:24.568Z,6.37
2023-05-08T18:32:54.464Z,7.77
2023-05-08T18:35:24.185Z,6.70
2023-05-08T18:37:53.984Z,7.20
2023-05-08T18:40:23.821Z,6.03
2023-05-08T18:42:53.633Z,6.63
2023-05-08T18:45:23.477Z,6.67
2023-05-08T18:47:54.197Z,6.97
2023-05-08T18:50:24.883Z,9.18
2023-05-08T18:52:54.682Z,19.13
2023-05-08T18:55:26.406Z,28.85
2023-05-08T18:57:56.470Z,34.97
2023-05-08T19:00:26.119Z,41.60
2023-05-08T19:02:56.153Z,45.03
2023-05-08T19:05:26.062Z,60.17
2023-05-08T19:07:55.871Z,62.93
2023-05-08T19:10:25.749Z,70.22
2023-05-08T19:12:55.750Z,72.63
2023-05-08T19:15:25.409Z,74.90
2023-05-08T19:17:55.231Z,69.57
2023-05-08T19:20:24.900Z,71.17
2023-05-08T19:22:54.739Z,75.00
2023-05-08T19:25:24.720Z,77.95
2023-05-08T19:27:54.680Z,72.13
2023-05-08T19:30:24.279Z,77.70
2023-05-08T19:32:54.105Z,75.40
2023-05-08T19:35:24.038Z,75.15
2023-05-08T19:37:54.235Z,69.47
2023-05-08T19:40:24.253Z,72.00
2023-05-08T19:42:54.087Z,72.87
2023-05-08T19:45:23.978Z,71.22
2023-05-08T19:47:54.228Z,78.17
2023-05-08T19:50:23.984Z,72.33
2023-05-08T19:52:53.933Z,68.00
2023-05-08T19:55:23.830Z,67.67
2023-05-08T19:57:53.946Z,67.62
2023-05-08T20:00:23.806Z,67.35
2023-05-08T20:02:53.787Z,70.73
2023-05-08T20:05:23.876Z,69.67
2023-05-08T20:07:53.699Z,67.23
2023-05-08T20:10:23.848Z,67.13
2023-05-08T20:12:53.710Z,69.17
2023-05-08T20:15:23.470Z,69.53
2023-05-08T20:17:55.308Z,71.50
2023-05-08T20:20:27.080Z,66.20
2023-05-08T20:22:57.245Z,62.43
2023-05-08T20:25:27.192Z,66.97
2023-05-08T20:27:56.744Z,69.05
2023-05-08T20:30:26.948Z,70.52
2023-05-08T20:32:58.428Z,68.40
2023-05-08T20:35:28.424Z,69.03
2023-05-08T20:37:58.238Z,65.10
2023-05-08T20:40:28.203Z,68.42
2023-05-08T20:42:58.081Z,61.70
2023-05-08T20:45:27.880Z,65.43
2023-05-08T20:47:58.419Z,64.03
2023-05-08T20:50:28.188Z,66.67
2023-05-08T20:52:58.007Z,65.27
2023-05-08T20:55:28.193Z,59.00
2023-05-08T20:57:59.309Z,65.60
2023-05-08T21:00:28.942Z,59.90
2023-05-08T21:02:58.894Z,60.27
2023-05-08T21:05:28.709Z,61.67
2023-05-08T21:08:02.482Z,62.50
2023-05-08T21:10:32.313Z,57.45
2023-05-08T21:13:02.214Z,57.03
2023-05-08T21:15:32.255Z,57.90
2023-05-08T21:18:02.362Z,55.83
2023-05-08T21:20:36.559Z,58.17
2023-05-08T21:23:06.365Z,55.80
2023-05-08T21:25:36.254Z,52.97
2023-05-08T21:28:08.123Z,58.85
2023-05-08T21:30:37.962Z,61.30
2023-05-08T21:33:07.934Z,56.87
2023-05-08T21:35:38.112Z,54.55
2023-05-08T21:38:12.051Z,55.50
2023-05-08T21:40:42.000Z,60.50
2023-05-08T21:43:11.801Z,63.80
2023-05-08T21:45:41.972Z,61.33
2023-05-08T21:48:12.696Z,62.47
2023-05-08T21:50:42.506Z,61.20
2023-05-08T21:53:12.301Z,65.43
2023-05-08T21:55:42.104Z,67.07
2023-05-08T21:58:11.667Z,62.30
2023-05-08T22:00:41.674Z,65.33
2023-05-08T22:03:11.557Z,66.00
2023-05-08T22:05:41.432Z,67.87
2023-05-08T22:08:12.012Z,63.22
2023-05-08T22:10:43.816Z,64.45
2023-05-08T22:13:14.343Z,68.25
2023-05-08T22:15:44.257Z,59.87
2023-05-08T22:18:14.939Z,66.82
2023-05-08T22:20:44.743Z,66.97
2023-05-08T22:23:14.549Z,62.40
2023-05-08T22:25:44.937Z,73.00
2023-05-08T22:28:14.741Z,65.57
2023-05-08T22:30:44.565Z,70.47
2023-05-08T22:33:14.365Z,65.53
2023-05-08T22:35:44.246Z,68.57
2023-05-08T22:38:13.740Z,69.10
2023-05-08T22:40:43.686Z,66.23
2023-05-08T22:43:13.553Z,67.03
2023-05-08T22:45:43.465Z,64.27
2023-05-08T22:48:13.403Z,68.67
2023-05-08T22:50:43.266Z,72.77
2023-05-08T22:53:13.305Z,64.87
2023-05-08T22:55:43.153Z,72.70
2023-05-08T22:58:12.688Z,66.62
2023-05-08T23:00:42.471Z,63.03
2023-05-08T23:03:12.363Z,65.13
2023-05-08T23:05:42.083Z,70.20
2023-05-08T23:10:42.372Z,65.52
2023-05-08T23:13:12.311Z,65.63
2023-05-08T23:15:42.983Z,69.50
2023-05-08T23:18:12.914Z,69.20
2023-05-08T23:20:42.769Z,66.97
2023-05-08T23:23:12.572Z,70.17
2023-05-08T23:25:42.388Z,65.37
2023-05-08T23:28:14.682Z,66.20
2023-05-08T23:30:44.502Z,72.13
2023-05-08T23:33:14.306Z,69.83
2023-05-08T23:35:44.131Z,69.70
2023-05-08T23:38:14.132Z,78.45
2023-05-08T23:40:44.302Z,73.93
2023-05-08T23:43:14.506Z,70.05
2023-05-08T23:45:44.663Z,77.30
2023-05-08T23:48:14.194Z,72.70
2023-05-08T23:50:43.834Z,73.20
2023-05-08T23:53:13.942Z,69.40
2023-05-08T23:55:43.753Z,71.70
2023-05-08T23:58:13.571Z,72.77
